Terminal Aerodrome Forecast
Issued by NWS Blacksburg, VA

Current Version | Previous Version | Graphics & Text | Print | Product List | Glossary On
Versions: 1 2 3 4 5 6 7 8 9 10 11 12 13 14 15 16 17 18 19
000
FTUS41 KRNK 260348 AAB
TAFBLF
TAF AMD
KBLF 260348Z 2604/2624 31012G22KT P6SM BKN025
     FM261400 28010KT P6SM FEW250
     FM261800 28007KT P6SM SCT250=

USA.gov is the U.S. government's official web portal to all federal, state and local government web resources and services.